Time;durP1;ratioP1;P1;durP2;ratioP2;P2;SDS_P1;SDS_P2;PMS_P1;PMS_P2;Temp;Humidity;BMP_temperature;BMP_pressure;BME280_temperature;BME280_humidity;BME280_pressure;Samples;Min_cycle;Max_cycle;Signal;HPM_P1;HPM_P2
2022/04/06 00:00:50;;;;;;;5.93;5.10;;;14.50;65.40;;;-142.21;100.00;112049.66;5047939;28;20544;-73
2022/04/06 00:03:18;;;;;;;4.97;4.57;;;14.50;65.80;;;-142.21;100.00;112049.66;5055963;28;20863;-74
2022/04/06 00:05:45;;;;;;;7.40;4.50;;;14.50;65.60;;;-142.21;100.00;112049.66;5035431;28;20536;-74
2022/04/06 00:08:12;;;;;;;5.07;4.57;;;14.50;65.90;;;-142.21;100.00;112049.66;5059836;28;20445;-73
2022/04/06 00:10:39;;;;;;;5.03;4.53;;;14.50;65.80;;;-142.21;100.00;112049.66;5050091;28;20899;-74
2022/04/06 00:13:06;;;;;;;5.40;4.90;;;14.50;65.50;;;-142.21;100.00;112049.66;5057648;28;20475;-75
2022/04/06 00:15:35;;;;;;;5.07;4.63;;;14.60;65.30;;;-142.21;100.00;112049.66;5043401;28;20457;-75
2022/04/06 00:18:02;;;;;;;4.77;4.27;;;14.60;65.20;;;-142.21;100.00;112049.66;5052849;28;20941;-75
2022/04/06 00:20:30;;;;;;;6.10;4.63;;;14.60;65.10;;;-142.21;100.00;112049.66;5053992;28;20441;-74
2022/04/06 00:22:57;;;;;;;4.90;4.47;;;14.60;64.90;;;-142.21;100.00;112049.66;5054579;28;20448;-74
2022/04/06 00:25:25;;;;;;;5.07;4.57;;;14.70;64.90;;;-142.21;100.00;112049.66;5053608;28;20449;-74
2022/04/06 00:27:52;;;;;;;4.73;4.13;;;14.70;64.70;;;-142.21;100.00;112049.66;5060198;28;20452;-73
2022/04/06 00:30:19;;;;;;;5.60;4.30;;;14.70;64.40;;;-142.21;100.00;112049.66;5059431;28;20515;-74
2022/04/06 00:32:47;;;;;;;5.07;4.40;;;14.70;64.40;;;-142.21;100.00;112049.66;5055723;28;20470;-75
2022/04/06 00:38:00;;;;;;;4.73;4.00;;;14.70;64.20;;;-142.21;100.00;112049.66;5055406;28;20449;-74
2022/04/06 00:40:28;;;;;;;4.60;4.20;;;14.60;64.30;;;-142.21;100.00;112049.66;5049033;28;20444;-75
2022/04/06 00:42:55;;;;;;;5.10;4.60;;;14.60;64.20;;;-142.21;100.00;112049.66;5036703;28;20485;-74
2022/04/06 00:45:24;;;;;;;5.47;4.30;;;14.60;64.10;;;-142.21;100.00;112049.66;5046888;28;20456;-74
2022/04/06 00:47:54;;;;;;;6.93;4.23;;;14.60;64.30;;;-142.21;100.00;112049.66;5060087;28;20446;-74
2022/04/06 00:50:23;;;;;;;5.33;4.27;;;14.60;64.30;;;-142.21;100.00;112049.66;5044896;28;20471;-74
2022/04/06 00:52:55;;;;;;;4.83;4.37;;;14.60;64.30;;;-142.21;100.00;112049.66;5065635;28;20538;-74
2022/04/06 00:55:24;;;;;;;4.97;3.83;;;14.50;64.40;;;-142.21;100.00;112049.66;5063870;28;20814;-74
2022/04/06 00:57:51;;;;;;;4.60;4.13;;;14.50;64.40;;;-142.21;100.00;112049.66;5053641;28;20459;-74
2022/04/06 01:00:19;;;;;;;5.50;4.33;;;14.40;64.60;;;-142.21;100.00;112049.66;5046957;28;20536;-74
2022/04/06 01:02:46;;;;;;;6.47;4.60;;;14.30;64.60;;;-142.21;100.00;112049.66;5048112;28;20448;-74
2022/04/06 01:05:15;;;;;;;4.87;3.87;;;14.30;64.50;;;-142.21;100.00;112049.66;5049001;28;20538;-74
2022/04/06 01:07:49;;;;;;;7.57;6.20;;;14.40;64.70;;;-142.21;100.00;112049.66;5054504;28;20531;-74
2022/04/06 01:10:16;;;;;;;5.20;4.70;;;14.40;64.50;;;-142.21;100.00;112049.66;5056256;28;20490;-74
2022/04/06 01:12:47;;;;;;;7.17;4.33;;;14.40;64.40;;;-142.21;100.00;112049.66;5041757;28;20580;-74
2022/04/06 01:15:16;;;;;;;5.13;4.63;;;14.50;64.70;;;-142.21;100.00;112049.66;5063737;28;20435;-74
2022/04/06 01:17:44;;;;;;;6.07;4.63;;;14.50;64.50;;;-142.21;100.00;112049.66;5054197;28;20444;-74
2022/04/06 01:20:15;;;;;;;4.90;4.40;;;14.50;64.20;;;-142.21;100.00;112049.66;5060764;28;20454;-74
2022/04/06 01:22:43;;;;;;;4.13;3.67;;;14.50;64.30;;;-142.21;100.00;112049.66;5055025;28;20494;-74
2022/04/06 01:25:10;;;;;;;4.50;4.10;;;14.50;64.20;;;-142.21;100.00;112049.66;5051167;28;20941;-74
2022/04/06 01:27:38;;;;;;;5.40;4.47;;;14.50;64.30;;;-142.21;100.00;112049.66;5041905;28;20479;-74
2022/04/06 01:30:07;;;;;;;5.23;4.50;;;14.50;64.30;;;-142.21;100.00;112049.66;5060566;28;20480;-74
2022/04/06 01:32:35;;;;;;;4.43;3.80;;;14.50;64.30;;;-142.21;100.00;112049.66;5049833;28;20449;-74
2022/04/06 01:35:04;;;;;;;4.90;4.40;;;14.50;64.30;;;-142.21;100.00;112049.66;5060299;28;20452;-74
2022/04/06 01:37:34;;;;;;;5.27;4.20;;;14.50;64.20;;;-142.21;100.00;112049.66;5063378;28;20458;-74
2022/04/06 01:40:04;;;;;;;4.17;3.77;;;14.50;63.90;;;-142.21;100.00;112049.66;5055537;28;20498;-74
2022/04/06 01:42:31;;;;;;;6.13;4.10;;;14.50;64.40;;;-142.21;100.00;112049.66;5050265;28;20461;-74
2022/04/06 01:44:59;;;;;;;3.97;3.57;;;14.50;64.20;;;-142.21;100.00;112049.66;5048719;28;20533;-74
2022/04/06 01:47:26;;;;;;;6.40;4.00;;;14.50;65.00;;;-142.21;100.00;112049.66;5055302;28;20456;-74
2022/04/06 01:52:40;;;;;;;5.03;4.53;;;14.50;64.20;;;-142.21;100.00;112049.66;5060976;28;20460;-73
2022/04/06 01:55:13;;;;;;;5.70;3.93;;;14.50;64.50;;;-142.21;100.00;112049.66;5059390;28;20443;-73
2022/04/06 01:57:43;;;;;;;4.43;4.03;;;14.40;64.60;;;-142.21;100.00;112049.66;5062569;28;20523;-73
2022/04/06 02:00:15;;;;;;;4.83;4.30;;;14.40;64.70;;;-142.21;100.00;112049.66;5062456;28;20463;-73
2022/04/06 02:02:45;;;;;;;5.03;4.53;;;14.40;64.70;;;-142.21;100.00;112049.66;5071124;28;20445;-74
2022/04/06 02:05:12;;;;;;;5.73;4.53;;;14.40;64.70;;;-142.21;100.00;112049.66;5047676;28;20453;-74
2022/04/06 02:07:39;;;;;;;4.53;4.13;;;14.40;64.60;;;-142.21;100.00;112049.66;5057658;28;20448;-73
2022/04/06 02:10:09;;;;;;;6.13;4.30;;;14.50;64.80;;;-142.21;100.00;112049.66;5052108;28;20881;-74
2022/04/06 02:12:38;;;;;;;4.47;4.00;;;14.50;64.80;;;-142.21;100.00;112049.66;5059285;28;20478;-73
2022/04/06 02:15:07;;;;;;;6.13;4.40;;;14.50;64.60;;;-142.21;100.00;112049.66;5043512;28;20472;-73
2022/04/06 02:17:34;;;;;;;4.73;4.33;;;14.40;64.90;;;-142.21;100.00;112049.66;5047863;28;20448;-74
2022/04/06 02:20:01;;;;;;;5.70;4.60;;;14.40;64.90;;;-142.21;100.00;112049.66;5051116;28;20447;-74
2022/04/06 02:22:29;;;;;;;4.70;3.77;;;14.40;65.00;;;-142.21;100.00;112049.66;5058660;28;20440;-74
2022/04/06 02:24:56;;;;;;;4.90;4.40;;;14.40;65.10;;;-142.21;100.00;112049.66;5065127;28;20539;-74
2022/04/06 02:27:24;;;;;;;6.00;4.30;;;14.40;65.00;;;-142.21;100.00;112049.66;5054598;28;20440;-74
2022/04/06 02:29:51;;;;;;;4.47;4.07;;;14.50;65.20;;;-142.21;100.00;112049.66;5060804;28;20515;-73
2022/04/06 02:32:18;;;;;;;5.17;4.50;;;14.40;64.90;;;-142.21;100.00;112049.66;5051033;28;20476;-74
2022/04/06 02:34:46;;;;;;;6.93;4.13;;;14.40;65.20;;;-142.21;100.00;112049.66;5060493;28;20460;-74
2022/04/06 02:37:13;;;;;;;5.60;4.77;;;14.40;65.60;;;-142.21;100.00;112049.66;5050084;28;20524;-74
2022/04/06 02:39:40;;;;;;;5.17;4.40;;;14.40;65.30;;;-142.21;100.00;112049.66;5051443;28;20467;-74
2022/04/06 02:42:08;;;;;;;5.17;4.33;;;14.40;65.60;;;-142.21;100.00;112049.66;5065589;28;20448;-74
2022/04/06 02:44:36;;;;;;;6.93;4.33;;;14.40;65.40;;;-142.21;100.00;112049.66;5051611;28;20452;-73
2022/04/06 02:47:04;;;;;;;6.13;4.67;;;14.40;65.50;;;-142.21;100.00;112049.66;5059092;28;20535;-74
2022/04/06 02:49:32;;;;;;;5.63;4.37;;;14.40;65.40;;;-142.21;100.00;112049.66;5059681;28;20874;-74
2022/04/06 02:51:59;;;;;;;5.70;4.37;;;14.40;65.40;;;-142.21;100.00;112049.66;5050134;28;20451;-74
2022/04/06 02:54:26;;;;;;;4.73;4.30;;;14.40;65.40;;;-142.21;100.00;112049.66;5003509;28;20473;-74
2022/04/06 02:56:53;;;;;;;5.40;4.07;;;14.50;65.20;;;-142.21;100.00;112049.66;5044025;28;20444;-74
2022/04/06 02:59:21;;;;;;;4.83;4.30;;;14.50;65.00;;;-142.21;100.00;112049.66;5041266;28;20460;-74
2022/04/06 03:01:51;;;;;;;6.87;4.30;;;14.50;65.20;;;-142.21;100.00;112049.66;5055019;28;20974;-74
2022/04/06 03:04:18;;;;;;;5.40;4.17;;;14.50;65.10;;;-142.21;100.00;112049.66;5053870;28;20452;-74
2022/04/06 03:06:45;;;;;;;4.83;4.33;;;14.40;64.80;;;-142.21;100.00;112049.66;5059729;28;20486;-74
2022/04/06 03:09:12;;;;;;;4.83;4.33;;;14.40;65.00;;;-142.21;100.00;112049.66;5041934;28;20922;-74
2022/04/06 03:11:39;;;;;;;7.00;4.50;;;14.40;65.30;;;-142.21;100.00;112049.66;5049909;28;21079;-74
2022/04/06 03:14:08;;;;;;;4.23;3.83;;;14.40;65.10;;;-142.21;100.00;112049.66;5043032;28;20449;-74
2022/04/06 03:16:35;;;;;;;5.80;3.83;;;14.40;65.10;;;-142.21;100.00;112049.66;5060672;28;20487;-74
2022/04/06 03:19:04;;;;;;;4.13;3.73;;;14.40;65.00;;;-142.21;100.00;112049.66;5055539;28;20444;-74
2022/04/06 03:21:31;;;;;;;4.27;3.53;;;14.40;65.40;;;-142.21;100.00;112049.66;5059470;28;20542;-74
2022/04/06 03:23:59;;;;;;;6.83;3.83;;;14.50;65.20;;;-142.21;100.00;112049.66;5052126;28;20449;-74
2022/04/06 03:26:26;;;;;;;5.03;3.77;;;14.50;65.10;;;-142.21;100.00;112049.66;5053989;28;20475;-74
2022/04/06 03:28:53;;;;;;;4.60;4.10;;;14.40;65.10;;;-142.21;100.00;112049.66;5062485;28;20461;-73
2022/04/06 03:31:20;;;;;;;4.10;3.70;;;14.50;65.30;;;-142.21;100.00;112049.66;5040423;28;20495;-74
2022/04/06 03:33:48;;;;;;;4.43;3.87;;;14.50;65.20;;;-142.21;100.00;112049.66;5054925;28;20837;-74
2022/04/06 03:36:17;;;;;;;4.77;3.80;;;14.50;65.10;;;-142.21;100.00;112049.66;5055382;28;20535;-74
2022/04/06 03:38:44;;;;;;;4.83;4.33;;;14.50;65.20;;;-142.21;100.00;112049.66;5049145;28;20789;-74
2022/04/06 03:41:11;;;;;;;4.23;3.33;;;14.40;65.50;;;-142.21;100.00;112049.66;5058317;28;20924;-74
2022/04/06 03:43:38;;;;;;;4.53;3.97;;;14.40;65.80;;;-142.21;100.00;112049.66;5058607;28;20540;-74
2022/04/06 03:46:05;;;;;;;4.30;3.90;;;14.40;65.70;;;-142.21;100.00;112049.66;5053325;28;20962;-74
2022/04/06 03:48:32;;;;;;;3.90;3.50;;;14.40;65.40;;;-142.21;100.00;112049.66;5046596;28;20441;-74
2022/04/06 03:50:59;;;;;;;4.37;3.90;;;14.50;65.30;;;-142.21;100.00;112049.66;5051905;28;20566;-74
2022/04/06 03:53:28;;;;;;;3.90;3.50;;;14.40;65.20;;;-142.21;100.00;112049.66;5045828;28;20956;-73
2022/04/06 03:55:55;;;;;;;4.20;3.70;;;14.40;65.40;;;-142.21;100.00;112049.66;5045398;28;20443;-73
2022/04/06 03:58:22;;;;;;;4.43;3.27;;;14.40;65.20;;;-142.21;100.00;112049.66;5052354;28;20540;-74
2022/04/06 04:00:49;;;;;;;3.87;3.40;;;14.40;65.60;;;-142.21;100.00;112049.66;5051350;28;20444;-73
2022/04/06 04:03:16;;;;;;;3.67;3.33;;;14.40;65.70;;;-142.21;100.00;112049.66;5055150;28;21004;-73
2022/04/06 04:05:43;;;;;;;4.43;3.40;;;14.40;65.70;;;-142.21;100.00;112049.66;5047194;28;20530;-73
2022/04/06 04:08:11;;;;;;;4.63;3.33;;;14.40;65.70;;;-142.21;100.00;112049.66;5066523;28;20451;-74
2022/04/06 04:10:39;;;;;;;4.33;3.47;;;14.40;65.40;;;-142.21;100.00;112049.66;5052441;28;20574;-73
2022/04/06 04:13:06;;;;;;;4.30;3.43;;;14.40;65.60;;;-142.21;100.00;112049.66;5053881;28;20481;-74
2022/04/06 04:15:33;;;;;;;3.43;2.87;;;14.40;65.70;;;-142.21;100.00;112049.66;5050732;28;20450;-74
2022/04/06 04:18:00;;;;;;;3.53;2.93;;;14.40;65.80;;;-142.21;100.00;112049.66;5054442;28;20445;-73
2022/04/06 04:20:28;;;;;;;4.23;3.23;;;14.40;66.00;;;-142.21;100.00;112049.66;5052155;28;20447;-74
2022/04/06 04:22:55;;;;;;;3.23;2.90;;;14.50;66.10;;;-142.21;100.00;112049.66;5054802;28;20444;-73
2022/04/06 04:25:22;;;;;;;3.70;3.40;;;14.50;65.90;;;-142.21;100.00;112049.66;5054672;28;20793;-73
2022/04/06 04:27:51;;;;;;;3.20;3.00;;;14.50;65.70;;;-142.21;100.00;112049.66;5059260;28;21005;-74
2022/04/06 04:30:19;;;;;;;3.53;2.90;;;14.50;65.70;;;-142.21;100.00;112049.66;5049033;28;20483;-74
2022/04/06 04:32:46;;;;;;;3.03;2.73;;;14.50;65.70;;;-142.21;100.00;112049.66;5050053;28;20459;-73
2022/04/06 04:35:14;;;;;;;3.20;2.90;;;14.50;65.80;;;-142.21;100.00;112049.66;5049047;28;20452;-74
2022/04/06 04:37:41;;;;;;;4.50;3.07;;;14.50;66.00;;;-142.21;100.00;112049.66;5047057;28;20535;-74
2022/04/06 04:40:10;;;;;;;5.23;3.60;;;14.50;65.80;;;-142.21;100.00;112049.66;5048957;28;21012;-74
2022/04/06 04:42:37;;;;;;;3.50;3.07;;;14.50;66.80;;;-142.21;100.00;112049.66;5051134;28;20783;-74
2022/04/06 04:45:08;;;;;;;2.97;2.77;;;14.50;65.90;;;-142.21;100.00;112049.66;5048400;28;20452;-74
2022/04/06 04:47:36;;;;;;;3.40;3.10;;;14.50;66.10;;;-142.21;100.00;112049.66;5059868;28;20449;-74
2022/04/06 04:50:04;;;;;;;3.13;2.83;;;14.50;65.70;;;-142.21;100.00;112049.66;5051660;28;20487;-72
2022/04/06 04:52:31;;;;;;;3.47;3.17;;;14.50;65.70;;;-142.21;100.00;112049.66;5024188;28;20980;-74
2022/04/06 04:54:58;;;;;;;6.33;3.40;;;14.50;65.60;;;-142.21;100.00;112049.66;5048799;28;20451;-73
2022/04/06 04:57:25;;;;;;;3.87;3.00;;;14.40;66.60;;;-142.21;100.00;112049.66;5071102;28;20527;-74
2022/04/06 04:59:53;;;;;;;8.60;3.00;;;14.40;66.10;;;-142.21;100.00;112049.66;5055430;28;20787;-74
2022/04/06 05:02:21;;;;;;;3.37;3.07;;;14.40;66.00;;;-142.21;100.00;112049.66;5055823;28;20442;-74
2022/04/06 05:04:48;;;;;;;3.40;2.77;;;14.40;66.30;;;-142.21;100.00;112049.66;5048619;28;20547;-74
2022/04/06 05:07:15;;;;;;;3.50;3.20;;;14.40;66.40;;;-142.21;100.00;112049.66;5053636;28;20523;-73
2022/04/06 05:09:42;;;;;;;4.13;2.97;;;14.40;66.30;;;-142.21;100.00;112049.66;5067518;28;20506;-74
2022/04/06 05:12:11;;;;;;;3.27;2.97;;;14.40;66.10;;;-142.21;100.00;112049.66;5067781;28;20546;-74
2022/04/06 05:14:38;;;;;;;4.67;3.60;;;14.50;65.80;;;-142.21;100.00;112049.66;5054715;28;20480;-74
2022/04/06 05:17:06;;;;;;;3.00;2.70;;;14.40;65.80;;;-142.21;100.00;112049.66;5062586;28;20550;-73
2022/04/06 05:19:34;;;;;;;4.57;3.70;;;14.50;65.80;;;-142.21;100.00;112049.66;5075577;28;20453;-73
2022/04/06 05:22:04;;;;;;;3.97;3.57;;;14.50;65.60;;;-142.21;100.00;112049.66;5071207;28;20448;-73
2022/04/06 05:24:31;;;;;;;5.87;3.50;;;14.50;65.50;;;-142.21;100.00;112049.66;5056508;28;20452;-73
2022/04/06 05:26:59;;;;;;;4.53;3.70;;;14.40;65.50;;;-142.21;100.00;112049.66;5056855;28;20853;-73
2022/04/06 05:29:26;;;;;;;5.53;3.80;;;14.40;65.40;;;-142.21;100.00;112049.66;5037514;28;20943;-73
2022/04/06 05:31:53;;;;;;;5.43;3.93;;;14.50;65.40;;;-142.21;100.00;112049.66;5060365;28;20493;-73
2022/04/06 05:34:20;;;;;;;4.90;4.03;;;14.50;65.10;;;-142.21;100.00;112049.66;5068603;28;20447;-73
2022/04/06 05:36:48;;;;;;;3.83;3.27;;;14.40;65.00;;;-142.21;100.00;112049.66;5072664;28;20443;-73
2022/04/06 05:39:15;;;;;;;3.60;3.30;;;14.50;65.20;;;-142.21;100.00;112049.66;5073543;28;20534;-73
2022/04/06 05:41:42;;;;;;;5.43;3.40;;;14.50;65.20;;;-142.21;100.00;112049.66;5059147;28;20479;-74
2022/04/06 05:44:10;;;;;;;4.53;4.10;;;14.50;65.00;;;-142.21;100.00;112049.66;5054206;28;20472;-73
2022/04/06 05:46:37;;;;;;;6.83;4.33;;;14.50;64.80;;;-142.21;100.00;112049.66;5056817;28;20443;-73
2022/04/06 05:49:04;;;;;;;5.10;3.60;;;14.60;64.70;;;-142.21;100.00;112049.66;5061402;28;20539;-73
2022/04/06 05:51:32;;;;;;;4.87;3.67;;;14.50;64.80;;;-142.21;100.00;112049.66;5055330;28;20484;-74
2022/04/06 05:54:00;;;;;;;4.20;3.80;;;14.50;65.00;;;-142.21;100.00;112049.66;5062529;28;20451;-74
2022/04/06 05:56:27;;;;;;;4.33;3.67;;;14.60;65.10;;;-142.21;100.00;112049.66;5055613;28;20459;-75
2022/04/06 05:58:55;;;;;;;4.23;3.63;;;14.50;64.80;;;-142.21;100.00;112049.66;5057366;28;20802;-74
2022/04/06 06:01:22;;;;;;;4.53;3.70;;;14.60;65.00;;;-142.21;100.00;112049.66;5071281;28;20439;-74
2022/04/06 06:03:50;;;;;;;4.33;3.67;;;14.50;65.10;;;-142.21;100.00;112049.66;5060155;28;20440;-74
2022/04/06 06:06:18;;;;;;;5.03;3.63;;;14.50;65.40;;;-142.21;100.00;112049.66;5055435;28;20448;-74
2022/04/06 06:08:46;;;;;;;4.93;4.13;;;14.50;65.20;;;-142.21;100.00;112049.66;5069792;28;20487;-74
2022/04/06 06:11:14;;;;;;;4.13;3.70;;;14.50;65.30;;;-142.21;100.00;112049.66;5067444;28;20566;-73
2022/04/06 06:13:42;;;;;;;3.70;3.40;;;14.50;65.40;;;-142.21;100.00;112049.66;5056486;28;20483;-74
2022/04/06 06:16:09;;;;;;;4.73;3.40;;;14.50;65.50;;;-142.21;100.00;112049.66;5053761;28;20933;-74
2022/04/06 06:18:36;;;;;;;4.30;3.60;;;14.50;65.60;;;-142.21;100.00;112049.66;5064778;28;20454;-74
2022/04/06 06:21:04;;;;;;;3.27;2.97;;;14.60;65.80;;;-142.21;100.00;112049.66;5049638;28;20459;-74
2022/04/06 06:23:32;;;;;;;5.43;3.10;;;14.50;65.80;;;-142.21;100.00;112049.66;5058756;28;21023;-74
2022/04/06 06:25:59;;;;;;;3.83;3.33;;;14.50;66.10;;;-142.21;100.00;112049.66;5053719;28;20539;-74
2022/04/06 06:28:27;;;;;;;4.60;2.70;;;14.60;67.00;;;-142.21;100.00;112049.66;5051940;28;20444;-74
2022/04/06 06:30:55;;;;;;;4.43;2.90;;;14.50;66.40;;;-142.21;100.00;112049.66;5054936;28;20484;-74
2022/04/06 06:33:22;;;;;;;3.33;2.57;;;14.60;66.60;;;-142.21;100.00;112049.66;5054301;28;20538;-75
2022/04/06 06:35:49;;;;;;;3.57;3.13;;;14.60;66.70;;;-142.21;100.00;112049.66;5056670;28;20480;-74
2022/04/06 06:38:16;;;;;;;2.60;2.40;;;14.60;66.90;;;-142.21;100.00;112049.66;5056539;28;20448;-74
2022/04/06 06:40:43;;;;;;;3.73;2.90;;;14.60;67.00;;;-142.21;100.00;112049.66;5051860;28;20532;-75
2022/04/06 06:43:10;;;;;;;3.30;3.00;;;14.60;66.90;;;-142.21;100.00;112049.66;5056279;28;20506;-74
2022/04/06 06:45:39;;;;;;;6.60;2.83;;;14.70;67.00;;;-142.21;100.00;112049.66;5059916;28;20484;-75
2022/04/06 06:48:08;;;;;;;3.57;3.00;;;14.80;66.90;;;-142.21;100.00;112049.66;5054171;28;20458;-75
2022/04/06 06:50:35;;;;;;;3.67;2.33;;;14.70;66.80;;;-142.21;100.00;112049.66;5053260;28;20539;-75
2022/04/06 06:53:02;;;;;;;3.17;2.87;;;14.80;66.50;;;-142.21;100.00;112049.66;5050073;28;20471;-74
2022/04/06 06:55:29;;;;;;;2.63;2.40;;;14.90;66.20;;;-142.21;100.00;112049.66;5053052;28;20454;-75
2022/04/06 06:57:56;;;;;;;4.53;3.20;;;14.90;66.20;;;-142.21;100.00;112049.66;5035285;28;20496;-74
2022/04/06 07:00:23;;;;;;;2.63;2.43;;;14.90;65.90;;;-142.21;100.00;112049.66;5053396;28;20445;-75
2022/04/06 07:02:52;;;;;;;3.20;2.67;;;14.90;65.70;;;-142.21;100.00;112049.66;5050012;28;20459;-74
2022/04/06 07:05:20;;;;;;;2.50;2.30;;;14.90;65.70;;;-142.21;100.00;112049.66;5049902;28;20448;-74
2022/04/06 07:07:52;;;;;;;3.47;2.67;;;15.00;66.00;;;-142.21;100.00;112049.66;5044791;28;20449;-74
2022/04/06 07:10:20;;;;;;;3.37;2.80;;;15.00;65.70;;;-142.21;100.00;112049.66;5035925;28;20445;-74
2022/04/06 07:12:48;;;;;;;2.60;2.40;;;15.00;65.80;;;-142.21;100.00;112049.66;5033079;28;20528;-72
2022/04/06 07:15:15;;;;;;;2.87;2.60;;;15.10;65.70;;;-142.21;100.00;112049.66;5033510;28;20487;-75
2022/04/06 07:17:42;;;;;;;3.17;2.87;;;15.20;65.10;;;-142.21;100.00;112049.66;5052291;28;20519;-74
2022/04/06 07:20:12;;;;;;;2.80;2.57;;;15.30;65.00;;;-142.21;100.00;112049.66;5053036;28;20448;-75
2022/04/06 07:22:40;;;;;;;2.87;2.50;;;15.30;64.30;;;-142.21;100.00;112049.66;5053099;28;20440;-74
2022/04/06 07:25:08;;;;;;;3.60;2.57;;;15.30;64.20;;;-142.21;100.00;112049.66;5052471;28;20854;-74
2022/04/06 07:27:36;;;;;;;2.90;2.37;;;15.30;63.80;;;-142.21;100.00;112049.66;5056929;28;20463;-74
2022/04/06 07:30:06;;;;;;;3.40;2.47;;;15.40;64.00;;;-142.21;100.00;112049.66;5032227;28;20458;-74
2022/04/06 07:32:34;;;;;;;3.80;2.47;;;15.40;63.20;;;-142.21;100.00;112049.66;5040039;28;20484;-74
2022/04/06 07:35:03;;;;;;;2.87;2.37;;;15.40;62.50;;;-142.21;100.00;112049.66;5050987;28;20531;-73
2022/04/06 07:37:38;;;;;;;2.80;2.60;;;15.40;62.70;;;-142.21;100.00;112049.66;5052494;28;20454;-74
2022/04/06 07:40:08;;;;;;;3.33;2.57;;;15.50;62.60;;;-142.21;100.00;112049.66;5053594;28;20463;-74
2022/04/06 07:42:36;;;;;;;2.83;2.53;;;15.60;62.60;;;-142.21;100.00;112049.66;5072209;28;20498;-73
2022/04/06 07:45:04;;;;;;;4.90;2.90;;;15.60;62.40;;;-142.21;100.00;112049.66;5053068;28;20452;-74
2022/04/06 07:47:32;;;;;;;3.60;2.90;;;15.60;61.80;;;-142.21;100.00;112049.66;5052567;28;20455;-74
2022/04/06 07:50:00;;;;;;;4.10;2.33;;;15.60;61.70;;;-142.21;100.00;112049.66;5052095;28;20551;-74
2022/04/06 07:52:28;;;;;;;3.30;3.00;;;15.60;61.60;;;-142.21;100.00;112049.66;5032544;28;20492;-75
2022/04/06 07:54:57;;;;;;;3.47;2.87;;;15.60;61.90;;;-142.21;100.00;112049.66;5051579;28;20448;-74
2022/04/06 07:57:25;;;;;;;3.30;3.00;;;15.70;61.70;;;-142.21;100.00;112049.66;5052733;28;20543;-74
2022/04/06 07:59:53;;;;;;;3.07;2.77;;;15.70;61.10;;;-142.21;100.00;112049.66;5057945;28;20973;-74
2022/04/06 08:02:20;;;;;;;5.63;3.50;;;15.70;61.10;;;-142.21;100.00;112049.66;5072030;28;20451;-74
2022/04/06 08:04:48;;;;;;;3.50;2.97;;;15.80;60.80;;;-142.21;100.00;112049.66;5052762;28;20798;-74
2022/04/06 08:07:15;;;;;;;2.77;2.53;;;15.80;60.40;;;-142.21;100.00;112049.66;5042890;28;20491;-74
2022/04/06 08:09:42;;;;;;;3.40;2.67;;;15.80;60.00;;;-142.21;100.00;112049.66;5058107;28;20526;-74
2022/04/06 08:12:11;;;;;;;3.30;2.80;;;15.80;61.10;;;-142.21;100.00;112049.66;5050263;28;20496;-74
2022/04/06 08:14:38;;;;;;;3.07;2.77;;;15.80;60.20;;;-142.21;100.00;112049.66;5052620;28;20444;-74
2022/04/06 08:17:06;;;;;;;3.23;2.30;;;15.80;60.40;;;-142.21;100.00;112049.66;5053361;28;20468;-74
2022/04/06 08:19:33;;;;;;;2.87;2.63;;;15.90;60.60;;;-142.21;100.00;112049.66;5059614;28;20447;-74
2022/04/06 08:22:01;;;;;;;2.63;2.43;;;15.80;60.20;;;-142.21;100.00;112049.66;5048758;28;20487;-74
2022/04/06 08:24:28;;;;;;;2.77;2.50;;;15.80;60.00;;;-142.21;100.00;112049.66;5031612;28;20480;-73
2022/04/06 08:26:55;;;;;;;2.77;2.57;;;15.70;60.50;;;-142.21;100.00;112049.66;5058503;28;20494;-74
2022/04/06 08:29:24;;;;;;;4.90;3.60;;;15.70;60.50;;;-142.21;100.00;112049.66;5055209;28;20943;-73
2022/04/06 08:31:51;;;;;;;4.37;3.27;;;15.70;60.10;;;-142.21;100.00;112049.66;5052597;28;20575;-73
2022/04/06 08:34:18;;;;;;;3.07;2.77;;;15.70;60.50;;;-142.21;100.00;112049.66;5052398;28;20976;-74
2022/04/06 08:36:45;;;;;;;3.10;2.80;;;15.70;60.60;;;-142.21;100.00;112049.66;5061090;28;20535;-74
2022/04/06 08:39:15;;;;;;;3.67;2.87;;;15.70;60.80;;;-142.21;100.00;112049.66;5054972;28;20460;-75
2022/04/06 08:41:43;;;;;;;3.23;2.97;;;15.70;60.20;;;-142.21;100.00;112049.66;5051769;28;20476;-74
2022/04/06 08:44:10;;;;;;;4.07;3.67;;;15.70;59.90;;;-142.21;100.00;112049.66;5052415;28;20853;-74
2022/04/06 08:46:42;;;;;;;2.70;2.50;;;15.80;60.00;;;-142.21;100.00;112049.66;5051885;28;20858;-74
2022/04/06 08:49:11;;;;;;;3.20;2.90;;;15.70;59.80;;;-142.21;100.00;112049.66;5052211;28;20433;-73
2022/04/06 08:51:40;;;;;;;2.50;2.30;;;15.70;60.00;;;-142.21;100.00;112049.66;5051036;28;20570;-74
2022/04/06 08:54:08;;;;;;;3.17;2.80;;;15.70;60.10;;;-142.21;100.00;112049.66;5052018;28;20448;-74
2022/04/06 08:56:35;;;;;;;3.27;2.97;;;15.70;60.10;;;-142.21;100.00;112049.66;5051826;28;20586;-74
2022/04/06 08:59:04;;;;;;;3.30;3.00;;;15.70;60.00;;;-142.21;100.00;112049.66;5045608;28;20449;-74
2022/04/06 09:01:33;;;;;;;3.40;2.63;;;15.70;60.10;;;-142.21;100.00;112049.66;5032049;28;20445;-74
2022/04/06 09:04:02;;;;;;;3.37;2.50;;;15.70;60.00;;;-142.21;100.00;112049.66;5043778;28;20515;-74
2022/04/06 09:06:32;;;;;;;4.20;2.63;;;15.70;59.90;;;-142.21;100.00;112049.66;5051604;28;20444;-74
2022/04/06 09:08:59;;;;;;;2.60;2.40;;;15.70;59.80;;;-142.21;100.00;112049.66;5051950;28;20448;-74
2022/04/06 09:11:29;;;;;;;4.57;2.77;;;15.70;59.70;;;-142.21;100.00;112049.66;5051953;28;20507;-74
2022/04/06 09:14:02;;;;;;;2.70;2.50;;;15.80;60.00;;;-142.21;100.00;112049.66;5045362;28;20787;-74
2022/04/06 09:16:31;;;;;;;2.70;2.37;;;15.80;59.90;;;-142.21;100.00;112049.66;5032139;28;20529;-74
2022/04/06 09:19:06;;;;;;;3.27;2.77;;;15.80;59.80;;;-142.21;100.00;112049.66;5031465;28;20438;-74
2022/04/06 09:21:41;;;;;;;3.00;2.70;;;15.80;60.00;;;-142.21;100.00;112049.66;5031555;28;20452;-74
2022/04/06 09:24:16;;;;;;;3.07;2.70;;;15.90;59.90;;;-142.21;100.00;112049.66;5030887;28;20482;-74
2022/04/06 09:26:43;;;;;;;3.07;2.77;;;15.90;60.00;;;-142.21;100.00;112049.66;5038597;28;20470;-74
2022/04/06 09:29:13;;;;;;;2.97;2.60;;;15.90;60.00;;;-142.21;100.00;112049.66;5050614;28;20510;-74
2022/04/06 09:31:42;;;;;;;2.70;2.30;;;15.90;60.00;;;-142.21;100.00;112049.66;5051846;28;20484;-74
2022/04/06 09:34:13;;;;;;;2.60;2.40;;;15.90;60.20;;;-142.21;100.00;112049.66;5050995;28;20452;-74
2022/04/06 09:36:42;;;;;;;2.70;2.50;;;15.90;61.20;;;-142.21;100.00;112049.66;5050757;28;20757;-73
2022/04/06 09:39:09;;;;;;;2.67;2.47;;;15.90;60.80;;;-142.21;100.00;112049.66;5051269;28;20444;-74
2022/04/06 09:42:00;;;;;;;2.60;2.40;;;15.90;61.10;;;-142.21;100.00;112049.66;5051598;28;20448;-75
2022/04/06 09:50:19;;;;;;;4.43;4.03;;;15.80;61.40;;;-142.21;100.00;112049.66;5034021;28;20655;-75
2022/04/06 09:52:49;;;;;;;6.57;5.93;;;16.00;61.10;;;-142.21;100.00;112049.66;5035315;28;20523;-74
2022/04/06 09:55:19;;;;;;;3.23;2.93;;;16.10;61.10;;;-142.21;100.00;112049.66;5035153;28;20528;-74
2022/04/06 09:57:50;;;;;;;3.60;2.70;;;16.30;60.80;;;-142.21;100.00;112049.66;5037748;28;20520;-74
2022/04/06 10:00:19;;;;;;;3.50;2.63;;;16.50;60.40;;;-142.21;100.00;112049.66;5054859;28;20507;-74
2022/04/06 10:02:52;;;;;;;3.27;2.30;;;16.90;60.10;;;-142.21;100.00;112049.66;5038962;28;20455;-74
2022/04/06 10:05:22;;;;;;;4.83;3.23;;;17.10;58.80;;;-142.21;98.74;112049.66;5054008;28;20436;-74
2022/04/06 10:07:55;;;;;;;3.20;2.57;;;17.20;57.60;;;-142.21;99.09;112049.66;5055243;28;20429;-75